Atmautluak, Alaska
Current Conditions -  °F | °C
As of 4:53 PM on Sunday 21 Dec 2014 (Local Time) from PABE Reporting Station
Scattered Clouds Scattered Clouds  
Wind Chill: -11°   Ceiling: Unl
Heat Index:   Visibility: 10mi
Dew Point: -1°   Wind: 7mph
Humidity: 88%   Direction: 320°NW
Pressure: 29.52"   Gusts: NA
Location:  60.7494°N, 161.727°W
Report Text: PABE 220153Z 32006KT 10SM FEW130 SCT170 M17/M18 A2952 RMK AO2 SLP999 T11671183
Loading
Personal Weather Stations






























Interactive Weather Map New forecast layout! Learn more

10-Day Weather Forecast

Advertisements
Track Severe Weather on mobile